Terminal Aerodrome Forecast
Issued by NWS

Home | Current Version | Previous Version | Text Only | Print | Product List | Glossary On
Versions: 1 2 3 4 5 6 7 8 9 10 11 12
000
FTUS45 KRIW 210500
TAFBPI
TAF
KBPI 210520Z 2106/2206 VRB06KT P6SM VCSH FEW040 BKN070
     FM211000 VRB05KT P6SM FEW007 SCT070 OVC100
     FM211600 24006KT P6SM VCSH SCT050 BKN090
     FM211900 32011KT P6SM VCTS SCT060CB BKN100
     FM220100 VRB05KT P6SM SCT100 BKN200=

USA.gov is the U.S. government's official web portal to all federal, state and local government web resources and services.